createdAt,value
2022-12-22T00:01:53.975Z,11.27
2022-12-22T00:04:36.046Z,12.23
2022-12-22T00:07:17.099Z,11.93
2022-12-22T00:09:58.081Z,11.60
2022-12-22T00:12:39.058Z,11.32
2022-12-22T00:15:20.038Z,11.10
2022-12-22T00:18:01.154Z,11.43
2022-12-22T00:20:43.823Z,11.75
2022-12-22T00:23:24.728Z,12.43
2022-12-22T00:26:06.275Z,11.40
2022-12-22T00:28:47.942Z,11.55
2022-12-22T00:31:28.911Z,11.57
2022-12-22T00:34:09.926Z,10.95
2022-12-22T00:36:51.876Z,12.38
2022-12-22T00:39:33.139Z,11.10
2022-12-22T00:42:14.394Z,11.63
2022-12-22T00:44:55.576Z,11.80
2022-12-22T00:47:43.793Z,10.27
2022-12-22T00:50:27.313Z,10.73
2022-12-22T00:53:09.579Z,10.50
2022-12-22T00:55:51.804Z,12.07
2022-12-22T00:58:36.593Z,13.68
2022-12-22T01:01:17.515Z,10.73
2022-12-22T01:03:58.510Z,11.15
2022-12-22T01:06:39.104Z,10.93
2022-12-22T01:09:21.376Z,11.18
2022-12-22T01:12:02.079Z,10.80
2022-12-22T01:14:43.125Z,10.32
2022-12-22T01:17:24.015Z,10.20
2022-12-22T01:20:04.864Z,10.57
2022-12-22T01:22:47.209Z,10.25
2022-12-22T01:25:33.816Z,10.68
2022-12-22T01:28:14.727Z,10.38
2022-12-22T01:30:55.796Z,12.13
2022-12-22T01:33:36.683Z,11.43
2022-12-22T01:36:17.575Z,13.85
2022-12-22T01:38:58.554Z,16.85
2022-12-22T01:41:40.674Z,13.05
2022-12-22T01:44:29.981Z,12.85
2022-12-22T01:47:10.997Z,11.18
2022-12-22T01:49:56.940Z,12.55
2022-12-22T01:52:42.343Z,10.70
2022-12-22T01:55:30.485Z,10.65
2022-12-22T01:58:12.810Z,10.48
2022-12-22T02:00:53.842Z,11.30
2022-12-22T02:03:36.765Z,11.00
2022-12-22T02:06:32.418Z,12.25
2022-12-22T02:09:30.998Z,11.38
2022-12-22T02:12:21.692Z,9.95
2022-12-22T02:15:13.509Z,10.35
2022-12-22T02:18:01.921Z,9.63
2022-12-22T02:20:59.231Z,10.13
2022-12-22T02:24:14.830Z,12.15
2022-12-22T02:27:01.637Z,11.63
2022-12-22T02:29:48.569Z,11.32
2022-12-22T02:32:30.313Z,9.75
2022-12-22T02:35:11.212Z,12.65
2022-12-22T02:38:05.189Z,10.15
2022-12-22T02:40:53.063Z,10.88
2022-12-22T02:43:53.513Z,13.93
2022-12-22T02:46:40.281Z,12.68
2022-12-22T02:49:29.770Z,10.68
2022-12-22T02:52:20.084Z,11.23
2022-12-22T02:55:02.005Z,10.60
2022-12-22T02:57:42.998Z,10.90
2022-12-22T03:00:27.521Z,10.63
2022-12-22T03:03:08.999Z,10.30
2022-12-22T03:05:50.077Z,9.70
2022-12-22T03:08:30.807Z,9.57
2022-12-22T03:11:11.912Z,10.63
2022-12-22T03:13:52.849Z,9.57
2022-12-22T03:16:35.628Z,10.77
2022-12-22T03:19:16.766Z,9.25
2022-12-22T03:21:57.789Z,9.13
2022-12-22T03:24:38.652Z,8.43
2022-12-22T03:27:01.953Z,8.15
2022-12-22T03:29:25.192Z,8.63
2022-12-22T03:31:49.904Z,8.05
2022-12-22T03:34:13.225Z,8.15
2022-12-22T03:36:36.525Z,9.55
2022-12-22T03:38:59.815Z,8.48
2022-12-22T03:41:40.514Z,7.65
2022-12-22T03:44:21.524Z,7.70
2022-12-22T03:46:44.963Z,7.20
2022-12-22T03:49:12.705Z,9.05
2022-12-22T03:51:38.587Z,7.53
2022-12-22T03:54:02.083Z,7.63
2022-12-22T03:56:25.375Z,7.18
2022-12-22T03:58:48.580Z,7.25
2022-12-22T04:01:11.926Z,7.28
2022-12-22T04:03:35.198Z,6.40
2022-12-22T04:05:59.930Z,7.05
2022-12-22T04:08:23.197Z,8.73
2022-12-22T04:11:04.179Z,7.30
2022-12-22T04:13:27.466Z,7.75
2022-12-22T04:15:50.702Z,6.88
2022-12-22T04:18:13.947Z,6.90
2022-12-22T04:20:37.196Z,7.65
2022-12-22T04:23:02.294Z,8.32
2022-12-22T04:25:27.092Z,8.65
2022-12-22T04:27:50.390Z,8.82
2022-12-22T04:30:15.171Z,9.20
2022-12-22T04:32:38.654Z,7.32
2022-12-22T04:35:02.171Z,8.13
2022-12-22T04:37:25.517Z,7.13
2022-12-22T04:39:50.233Z,6.85
2022-12-22T04:42:13.859Z,9.05
2022-12-22T04:44:37.066Z,8.95
2022-12-22T04:47:00.325Z,8.48
2022-12-22T04:49:23.537Z,9.45
2022-12-22T04:51:46.836Z,9.40
2022-12-22T04:54:10.144Z,7.72
2022-12-22T04:56:34.987Z,7.03
2022-12-22T04:58:58.238Z,7.78
2022-12-22T05:01:21.740Z,7.43
2022-12-22T05:03:45.569Z,9.30
2022-12-22T05:06:09.392Z,10.48
2022-12-22T05:08:32.617Z,10.88
2022-12-22T05:10:55.867Z,9.07
2022-12-22T05:13:20.480Z,10.35
2022-12-22T05:15:43.847Z,8.70
2022-12-22T05:18:07.241Z,8.48
2022-12-22T05:20:30.762Z,10.15
2022-12-22T05:22:55.366Z,10.88
2022-12-22T05:25:20.736Z,16.33
2022-12-22T05:27:44.230Z,10.63
2022-12-22T05:30:12.407Z,9.70
2022-12-22T05:32:36.196Z,8.35
2022-12-22T05:34:59.466Z,9.55
2022-12-22T05:37:22.797Z,8.15
2022-12-22T05:39:46.069Z,7.70
2022-12-22T05:42:09.348Z,8.45
2022-12-22T05:44:32.613Z,7.55
2022-12-22T05:46:57.239Z,9.52
2022-12-22T05:49:20.739Z,7.75
2022-12-22T05:51:43.990Z,7.43
2022-12-22T05:54:07.320Z,8.70
2022-12-22T05:56:30.868Z,8.40
2022-12-22T05:58:54.106Z,8.70
2022-12-22T06:01:17.800Z,11.20
2022-12-22T06:03:42.489Z,8.48
2022-12-22T06:06:06.625Z,16.75
2022-12-22T06:08:30.071Z,23.95
2022-12-22T06:10:55.520Z,7.85
2022-12-22T06:13:18.841Z,10.38
2022-12-22T06:15:42.216Z,8.63
2022-12-22T06:18:05.709Z,9.27
2022-12-22T06:20:30.401Z,10.80
2022-12-22T06:22:53.728Z,10.10
2022-12-22T06:25:18.780Z,9.80
2022-12-22T06:27:42.422Z,11.40
2022-12-22T06:30:07.429Z,17.05
2022-12-22T06:32:30.737Z,12.48
2022-12-22T06:34:54.000Z,10.90
2022-12-22T06:37:18.621Z,11.40
2022-12-22T06:39:41.919Z,11.75
2022-12-22T06:42:22.856Z,15.35
2022-12-22T06:44:46.134Z,14.90
2022-12-22T06:47:09.372Z,11.68
2022-12-22T06:49:32.653Z,13.80
2022-12-22T06:51:56.076Z,13.13
2022-12-22T06:54:25.850Z,12.13
2022-12-22T06:56:49.656Z,19.77
2022-12-22T06:59:13.436Z,15.27
2022-12-22T07:01:36.851Z,15.25
2022-12-22T07:04:00.291Z,19.48
2022-12-22T07:06:23.984Z,16.52
2022-12-22T07:08:48.018Z,16.33
2022-12-22T07:11:13.047Z,18.15
2022-12-22T07:13:37.147Z,14.27
2022-12-22T07:16:02.111Z,14.82
2022-12-22T07:18:26.206Z,13.23
2022-12-22T07:20:49.598Z,13.35
2022-12-22T07:23:13.831Z,15.13
2022-12-22T07:25:37.178Z,16.13
2022-12-22T07:28:02.107Z,17.63
2022-12-22T07:30:25.385Z,16.00
2022-12-22T07:32:48.735Z,17.23
2022-12-22T07:35:11.983Z,18.60
2022-12-22T07:37:35.196Z,17.40
2022-12-22T07:39:58.552Z,21.35
2022-12-22T07:42:39.472Z,20.17
2022-12-22T07:45:05.126Z,20.58
2022-12-22T07:47:33.386Z,21.88
2022-12-22T07:50:16.329Z,19.38
2022-12-22T07:52:39.657Z,19.15
2022-12-22T07:55:02.938Z,18.50
2022-12-22T07:57:27.130Z,20.27
2022-12-22T07:59:50.391Z,20.13
2022-12-22T08:02:15.340Z,20.50
2022-12-22T08:04:38.783Z,20.58
2022-12-22T08:07:02.233Z,19.05
2022-12-22T08:09:25.506Z,21.23
2022-12-22T08:11:50.143Z,21.42
2022-12-22T08:14:13.421Z,22.05
2022-12-22T08:16:36.999Z,19.92
2022-12-22T08:19:01.885Z,19.60
2022-12-22T08:21:25.652Z,21.13
2022-12-22T08:23:48.883Z,22.00
2022-12-22T08:26:16.381Z,21.60
2022-12-22T08:28:45.792Z,22.02
2022-12-22T08:31:09.429Z,22.80
2022-12-22T08:33:32.861Z,22.35
2022-12-22T08:36:04.231Z,23.50
2022-12-22T08:38:31.933Z,23.45
2022-12-22T08:40:55.368Z,24.30
2022-12-22T08:43:19.651Z,23.25
2022-12-22T08:45:43.971Z,22.70
2022-12-22T08:48:07.610Z,21.90
2022-12-22T08:50:31.071Z,20.67
2022-12-22T08:53:04.144Z,22.13
2022-12-22T08:55:27.424Z,21.70
2022-12-22T08:57:56.004Z,21.35
2022-12-22T09:00:20.373Z,19.75
2022-12-22T09:02:43.798Z,20.10
2022-12-22T09:05:07.908Z,18.00
2022-12-22T09:07:31.475Z,20.00
2022-12-22T09:09:57.535Z,19.67
2022-12-22T09:12:21.017Z,18.90
2022-12-22T09:14:44.601Z,21.23
2022-12-22T09:17:07.962Z,20.83
2022-12-22T09:19:31.243Z,21.35
2022-12-22T09:21:54.571Z,21.40
2022-12-22T09:24:18.592Z,22.73
2022-12-22T09:26:43.361Z,21.08
2022-12-22T09:29:06.934Z,23.17
2022-12-22T09:31:30.748Z,20.67
2022-12-22T09:33:54.779Z,20.25
2022-12-22T09:36:21.003Z,20.60
2022-12-22T09:38:45.251Z,20.85
2022-12-22T09:41:12.016Z,20.67
2022-12-22T09:43:36.640Z,20.95
2022-12-22T09:46:00.220Z,19.90
2022-12-22T09:48:23.743Z,19.70
2022-12-22T09:50:47.350Z,19.75
2022-12-22T09:53:19.785Z,21.27
2022-12-22T09:55:46.281Z,22.80
2022-12-22T09:58:26.167Z,21.95
2022-12-22T10:00:57.409Z,21.98
2022-12-22T10:03:34.668Z,21.65
2022-12-22T10:06:09.501Z,23.80
2022-12-22T10:08:36.644Z,22.65
2022-12-22T10:11:00.098Z,22.95
2022-12-22T10:13:24.090Z,24.77
2022-12-22T10:15:47.825Z,22.65
2022-12-22T10:18:15.017Z,23.90
2022-12-22T10:20:39.932Z,24.35
2022-12-22T10:23:17.728Z,23.30
2022-12-22T10:26:26.093Z,23.88
2022-12-22T10:28:34.735Z,23.98
2022-12-22T10:31:16.893Z,20.83
2022-12-22T10:33:47.103Z,20.95
2022-12-22T10:36:11.471Z,21.10
2022-12-22T10:38:37.463Z,21.45
2022-12-22T10:41:10.047Z,21.30
2022-12-22T10:43:37.068Z,23.08
2022-12-22T10:46:01.134Z,22.30
2022-12-22T10:48:29.975Z,21.63
2022-12-22T10:50:55.672Z,20.88
2022-12-22T10:53:19.020Z,21.13
2022-12-22T10:55:44.063Z,21.77
2022-12-22T10:58:18.448Z,21.27
2022-12-22T11:00:42.701Z,20.95
2022-12-22T11:03:08.241Z,22.52
2022-12-22T11:05:33.699Z,21.48
2022-12-22T11:08:02.464Z,22.00
2022-12-22T11:10:34.047Z,19.92
2022-12-22T11:13:10.564Z,20.95
2022-12-22T11:15:41.223Z,18.85
2022-12-22T11:18:15.384Z,19.50
2022-12-22T11:20:53.403Z,19.90
2022-12-22T11:23:29.795Z,18.77
2022-12-22T11:26:08.550Z,19.67
2022-12-22T11:28:48.177Z,20.42
2022-12-22T11:31:25.585Z,19.13
2022-12-22T11:34:05.637Z,17.67
2022-12-22T11:36:43.281Z,18.63
2022-12-22T11:39:14.911Z,18.13
2022-12-22T11:41:57.144Z,17.02
2022-12-22T11:44:41.594Z,16.80
2022-12-22T11:47:19.784Z,16.83
2022-12-22T11:50:58.533Z,17.67
2022-12-22T11:53:40.655Z,17.98
2022-12-22T11:56:20.301Z,18.30
2022-12-22T11:59:26.947Z,18.00
2022-12-22T12:02:43.846Z,17.13
2022-12-22T12:05:45.503Z,17.60
2022-12-22T12:08:23.013Z,19.08
2022-12-22T12:10:50.306Z,19.50
2022-12-22T12:13:34.778Z,18.30
2022-12-22T12:16:12.017Z,20.38
2022-12-22T12:18:54.059Z,19.95
2022-12-22T12:21:28.467Z,21.77
2022-12-22T12:24:28.634Z,20.85
2022-12-22T12:27:03.273Z,20.17
2022-12-22T12:29:30.503Z,20.45
2022-12-22T12:32:01.923Z,18.90
2022-12-22T12:34:26.937Z,17.90
2022-12-22T12:36:58.894Z,18.52
2022-12-22T12:39:32.342Z,19.95
2022-12-22T12:42:07.877Z,18.98
2022-12-22T12:44:36.603Z,19.95
2022-12-22T12:47:25.278Z,16.35
2022-12-22T12:50:14.494Z,15.57
2022-12-22T12:53:15.440Z,15.25
2022-12-22T12:56:00.916Z,14.65
2022-12-22T12:58:54.043Z,13.45
2022-12-22T13:02:01.087Z,12.82
2022-12-22T13:05:14.408Z,13.07
2022-12-22T13:08:18.249Z,13.68
2022-12-22T13:10:46.790Z,13.52
2022-12-22T13:13:14.820Z,13.27
2022-12-22T13:15:41.075Z,13.70
2022-12-22T13:18:12.416Z,12.65
2022-12-22T13:20:39.530Z,14.32
2022-12-22T13:23:11.072Z,13.98
2022-12-22T13:25:45.595Z,14.20
2022-12-22T13:28:16.720Z,13.07
2022-12-22T13:30:40.444Z,12.52
2022-12-22T13:33:10.819Z,12.93
2022-12-22T13:35:46.603Z,12.43
2022-12-22T13:38:29.185Z,12.70
2022-12-22T13:40:52.626Z,12.35
2022-12-22T13:43:17.912Z,12.68
2022-12-22T13:45:44.602Z,12.63
2022-12-22T13:48:18.747Z,13.45
2022-12-22T13:50:47.804Z,12.50
2022-12-22T13:53:34.408Z,12.93
2022-12-22T13:56:01.642Z,12.45
2022-12-22T13:58:29.699Z,11.63
2022-12-22T14:01:03.873Z,11.73
2022-12-22T14:03:58.066Z,12.13
2022-12-22T14:06:28.266Z,12.05
2022-12-22T14:08:51.609Z,11.48
2022-12-22T14:11:15.080Z,12.43
2022-12-22T14:13:39.596Z,11.77
2022-12-22T14:16:05.463Z,11.93
2022-12-22T14:18:30.585Z,10.60
2022-12-22T14:20:59.197Z,11.20
2022-12-22T14:23:25.691Z,11.93
2022-12-22T14:25:50.875Z,11.40
2022-12-22T14:28:24.527Z,11.73
2022-12-22T14:30:51.844Z,12.00
2022-12-22T14:33:31.056Z,12.48
2022-12-22T14:36:16.739Z,11.85
2022-12-22T14:38:43.407Z,11.27
2022-12-22T14:41:33.002Z,11.20
2022-12-22T14:43:59.351Z,10.40
2022-12-22T14:46:22.786Z,10.23
2022-12-22T14:48:48.762Z,9.43
2022-12-22T14:51:12.146Z,8.55
2022-12-22T14:53:45.129Z,8.82
2022-12-22T14:56:13.521Z,8.95
2022-12-22T14:58:41.721Z,8.25
2022-12-22T15:01:20.107Z,8.32
2022-12-22T15:03:44.323Z,8.35
2022-12-22T15:06:35.434Z,8.00
2022-12-22T15:12:15.145Z,7.55
2022-12-22T15:14:39.355Z,7.85
2022-12-22T15:17:03.583Z,8.63
2022-12-22T15:19:30.675Z,8.63
2022-12-22T15:21:55.447Z,8.70
2022-12-22T15:24:20.369Z,8.95
2022-12-22T15:26:44.486Z,9.57
2022-12-22T15:29:07.750Z,10.30
2022-12-22T15:31:31.372Z,10.15
2022-12-22T15:33:57.069Z,10.55
2022-12-22T15:36:20.527Z,10.18
2022-12-22T15:38:45.180Z,10.43
2022-12-22T15:41:09.193Z,9.25
2022-12-22T15:46:18.853Z,9.57
2022-12-22T15:48:42.515Z,9.13
2022-12-22T15:51:09.451Z,10.80
2022-12-22T15:53:35.005Z,11.32
2022-12-22T15:55:59.846Z,12.30
2022-12-22T15:58:27.265Z,12.35
2022-12-22T16:00:50.634Z,12.32
2022-12-22T16:03:15.110Z,12.95
2022-12-22T16:05:39.138Z,11.52
2022-12-22T16:08:03.606Z,12.75
2022-12-22T16:10:30.004Z,12.45
2022-12-22T16:13:00.243Z,12.27
2022-12-22T16:15:23.974Z,11.55
2022-12-22T16:17:47.297Z,11.80
2022-12-22T16:20:12.319Z,11.48
2022-12-22T16:22:38.271Z,11.88
2022-12-22T16:25:03.805Z,11.73
2022-12-22T16:27:27.206Z,10.88
2022-12-22T16:29:54.590Z,12.13
2022-12-22T16:32:25.017Z,11.05
2022-12-22T16:34:48.639Z,10.95
2022-12-22T16:37:12.299Z,10.98
2022-12-22T16:39:35.670Z,13.25
2022-12-22T16:42:00.605Z,11.93
2022-12-22T16:44:24.995Z,11.52
2022-12-22T16:46:51.187Z,11.60
2022-12-22T16:49:26.171Z,13.35
2022-12-22T16:51:52.860Z,12.68
2022-12-22T16:54:16.431Z,11.68
2022-12-22T16:56:41.845Z,10.40
2022-12-22T16:59:05.860Z,11.35
2022-12-22T17:01:36.976Z,13.13
2022-12-22T17:04:06.497Z,12.10
2022-12-22T17:06:30.351Z,11.48
2022-12-22T17:08:53.965Z,11.90
2022-12-22T17:11:23.043Z,11.10
2022-12-22T17:13:46.467Z,11.20
2022-12-22T17:16:19.267Z,11.27
2022-12-22T17:18:42.692Z,10.18
2022-12-22T17:21:07.596Z,10.82
2022-12-22T17:23:36.221Z,10.02
2022-12-22T17:26:02.301Z,9.57
2022-12-22T17:28:26.043Z,9.90
2022-12-22T17:30:49.425Z,10.77
2022-12-22T17:33:16.730Z,9.13
2022-12-22T17:35:40.101Z,9.13
2022-12-22T17:38:05.294Z,9.55
2022-12-22T17:40:30.887Z,9.40
2022-12-22T17:42:54.442Z,9.73
2022-12-22T17:45:19.099Z,9.55
2022-12-22T17:47:43.288Z,10.05
2022-12-22T17:50:08.497Z,8.73
2022-12-22T17:52:31.877Z,9.05
2022-12-22T17:54:56.668Z,7.55
2022-12-22T17:57:25.233Z,9.70
2022-12-22T17:59:49.703Z,9.20
2022-12-22T18:02:18.404Z,9.43
2022-12-22T18:04:41.885Z,9.88
2022-12-22T18:07:05.138Z,10.27
2022-12-22T18:09:28.391Z,9.90
2022-12-22T18:11:54.106Z,10.73
2022-12-22T18:14:18.303Z,9.05
2022-12-22T18:16:42.418Z,9.73
2022-12-22T18:19:05.909Z,10.05
2022-12-22T18:21:30.035Z,8.57
2022-12-22T18:23:54.679Z,8.30
2022-12-22T18:26:24.303Z,8.75
2022-12-22T18:28:49.637Z,9.68
2022-12-22T18:31:13.033Z,9.13
2022-12-22T18:33:36.739Z,9.45
2022-12-22T18:36:00.672Z,9.52
2022-12-22T18:38:28.585Z,9.18
2022-12-22T18:40:52.061Z,8.60
2022-12-22T18:43:15.454Z,9.07
2022-12-22T18:45:40.717Z,9.02
2022-12-22T18:48:04.110Z,9.80
2022-12-22T18:50:30.234Z,9.63
2022-12-22T18:52:54.555Z,8.95
2022-12-22T18:55:19.856Z,8.13
2022-12-22T18:57:45.644Z,8.93
2022-12-22T19:00:17.503Z,8.50
2022-12-22T19:02:42.681Z,8.52
2022-12-22T19:05:17.162Z,8.80
2022-12-22T19:07:40.542Z,9.43
2022-12-22T19:10:03.851Z,8.77
2022-12-22T19:12:29.675Z,7.70
2022-12-22T19:14:56.382Z,8.18
2022-12-22T19:17:23.767Z,8.15
2022-12-22T19:19:48.575Z,7.90
2022-12-22T19:22:14.409Z,7.63
2022-12-22T19:24:38.092Z,7.65
2022-12-22T19:27:01.757Z,8.45
2022-12-22T19:29:25.525Z,8.25
2022-12-22T19:31:49.167Z,8.05
2022-12-22T19:34:20.229Z,8.35
2022-12-22T19:36:44.974Z,9.18
2022-12-22T19:39:08.220Z,9.23
2022-12-22T19:41:40.017Z,9.35
2022-12-22T19:44:03.841Z,10.30
2022-12-22T19:46:30.652Z,8.48
2022-12-22T19:48:53.976Z,8.07
2022-12-22T19:51:17.901Z,9.95
2022-12-22T19:53:42.748Z,9.43
2022-12-22T19:56:22.840Z,9.55
2022-12-22T19:58:46.288Z,10.23
2022-12-22T20:01:12.191Z,9.80
2022-12-22T20:03:35.587Z,9.43
2022-12-22T20:05:58.944Z,10.70
2022-12-22T20:08:22.289Z,9.02
2022-12-22T20:10:49.562Z,9.48
2022-12-22T20:13:19.600Z,9.38
2022-12-22T20:15:43.491Z,9.30
2022-12-22T20:18:18.290Z,9.48
2022-12-22T20:20:42.240Z,8.90
2022-12-22T20:23:12.498Z,9.73
2022-12-22T20:25:42.351Z,9.18
2022-12-22T20:28:14.788Z,10.77
2022-12-22T20:30:38.205Z,9.45
2022-12-22T20:33:01.611Z,10.25
2022-12-22T20:35:25.978Z,9.23
2022-12-22T20:37:50.129Z,9.25
2022-12-22T20:40:26.949Z,8.90
2022-12-22T20:42:50.666Z,9.70
2022-12-22T20:45:15.470Z,10.10
2022-12-22T20:47:39.695Z,9.00
2022-12-22T20:50:03.118Z,8.48
2022-12-22T20:52:27.090Z,9.48
2022-12-22T20:54:50.510Z,8.90
2022-12-22T20:57:15.061Z,8.63
2022-12-22T20:59:38.289Z,8.55
2022-12-22T21:02:03.367Z,8.75
2022-12-22T21:04:26.855Z,8.20
2022-12-22T21:06:53.062Z,9.43
2022-12-22T21:09:17.107Z,7.82
2022-12-22T21:11:40.465Z,8.40
2022-12-22T21:14:03.886Z,8.63
2022-12-22T21:16:31.087Z,8.52
2022-12-22T21:18:56.097Z,7.55
2022-12-22T21:21:20.073Z,7.70
2022-12-22T21:23:43.535Z,8.07
2022-12-22T21:26:12.001Z,8.18
2022-12-22T21:28:37.579Z,8.23
2022-12-22T21:31:01.005Z,7.18
2022-12-22T21:33:24.428Z,8.15
2022-12-22T21:35:49.132Z,7.95
2022-12-22T21:38:18.101Z,7.53
2022-12-22T21:40:41.664Z,8.10
2022-12-22T21:43:05.032Z,7.25
2022-12-22T21:45:31.884Z,7.72
2022-12-22T21:47:55.908Z,7.80
2022-12-22T21:50:23.079Z,6.82
2022-12-22T21:52:51.196Z,7.70
2022-12-22T21:55:14.672Z,6.80
2022-12-22T21:57:37.906Z,7.15
2022-12-22T22:00:01.487Z,7.55
2022-12-22T22:02:24.869Z,7.45
2022-12-22T22:04:54.560Z,7.07
2022-12-22T22:07:18.561Z,7.13
2022-12-22T22:09:43.200Z,7.00
2022-12-22T22:12:28.271Z,6.35
2022-12-22T22:14:51.789Z,7.20
2022-12-22T22:17:15.016Z,7.00
2022-12-22T22:19:38.718Z,6.50
2022-12-22T22:22:01.977Z,8.15
2022-12-22T22:24:25.798Z,6.32
2022-12-22T22:26:51.612Z,7.32
2022-12-22T22:29:15.093Z,6.70
2022-12-22T22:31:38.466Z,7.07
2022-12-22T22:34:01.740Z,7.50
2022-12-22T22:36:25.126Z,6.25
2022-12-22T22:38:51.583Z,7.22
2022-12-22T22:41:14.929Z,6.90
2022-12-22T22:43:39.644Z,6.43
2022-12-22T22:46:03.058Z,5.97
2022-12-22T22:48:26.819Z,6.93
2022-12-22T22:50:50.444Z,6.82
2022-12-22T22:53:13.737Z,6.53
2022-12-22T22:55:37.100Z,6.18
2022-12-22T22:58:00.350Z,7.50
2022-12-22T23:00:25.196Z,6.60
2022-12-22T23:02:48.856Z,7.03
2022-12-22T23:05:17.105Z,6.40
2022-12-22T23:07:45.872Z,7.80
2022-12-22T23:10:10.835Z,7.35
2022-12-22T23:12:34.309Z,6.43
2022-12-22T23:14:57.795Z,6.70
2022-12-22T23:17:22.512Z,6.63
2022-12-22T23:19:45.777Z,5.97
2022-12-22T23:22:09.168Z,6.88
2022-12-22T23:24:33.629Z,6.00
2022-12-22T23:26:56.885Z,6.78
2022-12-22T23:29:20.382Z,7.13
2022-12-22T23:31:43.781Z,6.18
2022-12-22T23:34:08.627Z,6.18
2022-12-22T23:36:32.627Z,6.38
2022-12-22T23:38:56.025Z,6.57
2022-12-22T23:41:19.876Z,6.53
2022-12-22T23:43:43.356Z,6.22
2022-12-22T23:46:10.745Z,6.50
2022-12-22T23:48:34.190Z,5.90
2022-12-22T23:50:58.915Z,5.82
2022-12-22T23:53:22.357Z,5.35
2022-12-22T23:55:45.666Z,5.45
2022-12-22T23:58:09.612Z,5.65
